Time;durP1;ratioP1;P1;durP2;ratioP2;P2;SDS_P1;SDS_P2;PMS_P1;PMS_P2;Temp;Humidity;BMP_temperature;BMP_pressure;BME280_temperature;BME280_humidity;BME280_pressure;Samples;Min_cycle;Max_cycle;Signal;HPM_P1;HPM_P2
2022/11/04 00:01:43;;;;;;;72.13;51.05;;;17.50;79.30;;;;;;4940891;28;91270;-50
2022/11/04 00:04:10;;;;;;;71.05;50.83;;;17.50;79.20;;;;;;4938329;28;89944;-53
2022/11/04 00:06:36;;;;;;;71.75;51.22;;;17.50;79.20;;;;;;4934991;28;90401;-52
2022/11/04 00:09:04;;;;;;;71.85;51.47;;;17.50;79.30;;;;;;4945308;28;90714;-51
2022/11/04 00:14:15;;;;;;;71.40;50.80;;;17.40;79.30;;;;;;4950273;28;90154;-51
2022/11/04 00:19:26;;;;;;;72.00;50.75;;;17.50;79.30;;;;;;4940648;28;95023;-53
2022/11/04 00:30:08;;;;;;;70.93;51.35;;;17.40;79.20;;;;;;4939774;28;92386;-51
2022/11/04 00:35:19;;;;;;;73.10;50.65;;;17.40;79.10;;;;;;4947541;28;90020;-48
2022/11/04 00:37:45;;;;;;;71.38;50.83;;;17.40;79.00;;;;;;4937355;28;90959;-52
2022/11/04 00:40:14;;;;;;;72.05;51.47;;;17.40;79.10;;;;;;4937296;28;90330;-51
2022/11/04 00:42:42;;;;;;;73.13;51.33;;;17.40;79.20;;;;;;4941200;28;91479;-52
2022/11/04 00:45:08;;;;;;;72.65;51.38;;;17.40;79.00;;;;;;4947091;28;91810;-53
2022/11/04 00:47:34;;;;;;;71.45;51.08;;;17.30;78.90;;;;;;4947099;28;89813;-52
2022/11/04 00:50:00;;;;;;;71.60;51.45;;;17.30;79.10;;;;;;4931920;28;91559;-51
2022/11/04 00:52:25;;;;;;;72.20;51.13;;;17.30;79.00;;;;;;4936625;28;90078;-49
2022/11/04 00:54:51;;;;;;;71.90;51.03;;;17.30;79.00;;;;;;4940586;28;90378;-52
2022/11/04 00:57:16;;;;;;;71.22;51.05;;;17.30;79.00;;;;;;4946566;28;93201;-50
2022/11/04 00:59:44;;;;;;;72.72;51.92;;;17.30;79.10;;;;;;4936111;28;92920;-52
2022/11/04 01:02:12;;;;;;;72.57;51.28;;;17.30;78.80;;;;;;4944864;28;91626;-52
2022/11/04 01:04:38;;;;;;;72.95;51.22;;;17.30;79.00;;;;;;4949648;28;90901;-53
2022/11/04 01:07:03;;;;;;;72.30;51.63;;;17.30;79.00;;;;;;4936741;28;92138;-51
2022/11/04 01:09:29;;;;;;;73.15;51.08;;;17.30;79.10;;;;;;4944807;28;89913;-50
2022/11/04 01:11:55;;;;;;;72.20;51.70;;;17.30;79.10;;;;;;4911007;28;91602;-51
2022/11/04 01:14:21;;;;;;;72.22;51.50;;;17.30;78.90;;;;;;4934956;28;93567;-52
2022/11/04 01:16:48;;;;;;;74.03;50.97;;;17.20;79.10;;;;;;4941845;28;91949;-52
2022/11/04 01:19:14;;;;;;;72.32;51.00;;;17.30;79.20;;;;;;4925075;28;91564;-48
2022/11/04 01:21:39;;;;;;;71.35;51.20;;;17.20;78.90;;;;;;4942489;28;92374;-52
2022/11/04 01:24:05;;;;;;;73.57;51.28;;;17.20;79.00;;;;;;4940631;28;91252;-53
2022/11/04 01:26:31;;;;;;;73.43;51.28;;;17.20;78.90;;;;;;4934030;28;93334;-48
2022/11/04 01:28:58;;;;;;;71.82;51.03;;;17.20;79.00;;;;;;4944478;28;90045;-53
2022/11/04 01:31:27;;;;;;;72.20;50.95;;;17.20;78.90;;;;;;4950087;28;91078;-52
2022/11/04 01:33:54;;;;;;;72.10;51.00;;;17.20;78.90;;;;;;4946047;28;90458;-55
2022/11/04 01:36:21;;;;;;;72.30;51.08;;;17.20;78.90;;;;;;4950406;28;89997;-48
2022/11/04 01:38:48;;;;;;;72.97;50.85;;;17.20;78.90;;;;;;4953006;28;91942;-50
2022/11/04 01:41:20;;;;;;;72.38;51.08;;;17.20;78.90;;;;;;4944040;28;91694;-53
2022/11/04 01:44:03;;;;;;;72.45;51.38;;;17.20;78.90;;;;;;4947819;28;91099;-51
2022/11/04 01:46:43;;;;;;;72.53;51.13;;;17.20;78.90;;;;;;4947465;28;90032;-50
2022/11/04 01:49:40;;;;;;;71.93;50.90;;;17.20;79.00;;;;;;4945279;28;93293;-52
2022/11/04 01:52:12;;;;;;;71.65;51.47;;;17.20;79.10;;;;;;4940747;28;92263;-52
2022/11/04 01:54:39;;;;;;;71.60;50.97;;;17.20;79.00;;;;;;4942346;28;92306;-51
2022/11/04 01:57:07;;;;;;;71.53;51.03;;;17.10;78.90;;;;;;4944500;28;90026;-53
2022/11/04 01:59:38;;;;;;;74.30;51.15;;;17.10;78.80;;;;;;4939538;28;92444;-50
2022/11/04 02:02:04;;;;;;;71.47;51.03;;;17.10;78.90;;;;;;4941205;28;92217;-52
2022/11/04 02:04:30;;;;;;;72.03;51.25;;;17.10;78.90;;;;;;4949960;28;90395;-51
2022/11/04 02:07:04;;;;;;;72.22;51.42;;;17.20;78.90;;;;;;4945047;28;90559;-54
2022/11/04 02:09:32;;;;;;;73.50;51.17;;;17.10;78.80;;;;;;4941237;28;89016;-52
2022/11/04 02:14:45;;;;;;;71.60;50.95;;;17.10;78.80;;;;;;4943314;28;93502;-55
2022/11/04 02:17:37;;;;;;;73.78;51.67;;;17.10;78.80;;;;;;4948531;28;90790;-52
2022/11/04 02:20:08;;;;;;;73.25;50.88;;;17.10;78.80;;;;;;4942397;28;89748;-49
2022/11/04 02:23:11;;;;;;;72.63;51.33;;;17.10;78.80;;;;;;4957947;28;89985;-50
2022/11/04 02:25:56;;;;;;;71.30;50.42;;;17.10;78.80;;;;;;4951746;28;90004;-50
2022/11/04 02:28:49;;;;;;;72.72;50.67;;;17.10;78.90;;;;;;4956711;28;89756;-50
2022/11/04 02:31:29;;;;;;;71.80;50.55;;;17.10;79.00;;;;;;4951288;28;89666;-48
2022/11/04 02:34:19;;;;;;;72.43;51.35;;;17.10;78.90;;;;;;4945162;28;89954;-53
2022/11/04 02:37:05;;;;;;;72.53;51.08;;;17.10;79.10;;;;;;4951571;28;89266;-49
2022/11/04 02:39:54;;;;;;;71.78;51.20;;;17.10;79.00;;;;;;4959087;28;90605;-49
2022/11/04 02:42:40;;;;;;;73.78;51.47;;;17.10;78.90;;;;;;4942976;28;90610;-51
2022/11/04 02:45:17;;;;;;;72.03;50.63;;;17.10;78.80;;;;;;4954947;28;92055;-50
2022/11/04 02:47:48;;;;;;;71.82;51.40;;;17.10;78.80;;;;;;4942593;28;92090;-49
2022/11/04 02:50:19;;;;;;;73.50;51.23;;;17.10;79.10;;;;;;4946494;28;89784;-52
2022/11/04 02:52:54;;;;;;;71.30;50.92;;;17.10;78.60;;;;;;4947140;28;90060;-52
2022/11/04 02:55:31;;;;;;;71.63;51.28;;;17.10;78.70;;;;;;4947658;28;90689;-53
2022/11/04 02:57:59;;;;;;;72.63;51.20;;;17.10;78.70;;;;;;4954750;28;89765;-52
2022/11/04 03:00:24;;;;;;;71.65;51.28;;;17.10;78.80;;;;;;4947655;28;90416;-50
2022/11/04 03:02:58;;;;;;;73.95;51.25;;;17.10;78.50;;;;;;4948713;28;94428;-52
2022/11/04 03:05:33;;;;;;;73.40;51.75;;;17.10;78.70;;;;;;4944884;28;91352;-54
2022/11/04 03:08:05;;;;;;;73.57;51.53;;;17.10;78.60;;;;;;4944721;28;90385;-51
2022/11/04 03:10:44;;;;;;;73.25;51.03;;;17.10;78.50;;;;;;4941445;28;98524;-54
2022/11/04 03:13:18;;;;;;;72.43;50.75;;;17.10;78.50;;;;;;4948802;28;92323;-54
2022/11/04 03:16:04;;;;;;;71.75;50.85;;;17.10;78.50;;;;;;4933724;28;90442;-52
2022/11/04 03:18:36;;;;;;;72.00;51.10;;;17.10;78.50;;;;;;4939192;28;90804;-53
2022/11/04 03:21:08;;;;;;;71.78;51.08;;;17.10;78.30;;;;;;4943682;28;90559;-54
2022/11/04 03:23:35;;;;;;;73.13;51.83;;;17.10;78.40;;;;;;4939352;28;94380;-49
2022/11/04 03:26:28;;;;;;;73.82;51.20;;;17.10;78.30;;;;;;4946800;28;90323;-52
2022/11/04 03:29:03;;;;;;;72.13;50.83;;;17.10;78.30;;;;;;4944435;28;91284;-50
2022/11/04 03:31:58;;;;;;;71.63;50.63;;;17.10;78.30;;;;;;4939721;28;91469;-52
2022/11/04 03:34:24;;;;;;;72.00;50.85;;;17.10;78.40;;;;;;4928992;28;89962;-52
2022/11/04 03:36:50;;;;;;;71.20;50.63;;;17.10;78.30;;;;;;4939850;28;93029;-51
2022/11/04 03:39:15;;;;;;;72.15;51.35;;;17.10;78.30;;;;;;4920852;28;94923;-49
2022/11/04 03:41:48;;;;;;;74.00;51.50;;;17.10;78.40;;;;;;4949693;28;90208;-51
2022/11/04 03:44:13;;;;;;;72.25;51.35;;;17.10;78.30;;;;;;4944414;28;89930;-52
2022/11/04 03:46:39;;;;;;;72.35;51.60;;;17.10;78.30;;;;;;4933418;28;98897;-51
2022/11/04 03:49:06;;;;;;;73.03;51.40;;;17.10;79.10;;;;;;4926997;28;93920;-52
2022/11/04 03:51:31;;;;;;;72.82;51.03;;;17.10;78.30;;;;;;4939835;28;90601;-52
2022/11/04 03:53:57;;;;;;;73.57;51.22;;;17.10;78.20;;;;;;4939700;28;90481;-53
2022/11/04 03:56:49;;;;;;;72.40;51.30;;;17.10;78.20;;;;;;4948432;28;90229;-52
2022/11/04 03:59:40;;;;;;;71.95;51.00;;;17.10;78.20;;;;;;4944603;28;91518;-52
2022/11/04 04:02:18;;;;;;;72.85;51.03;;;17.10;78.20;;;;;;4936674;28;92819;-51
2022/11/04 04:04:56;;;;;;;72.35;50.95;;;17.10;78.30;;;;;;4939863;28;90233;-53
2022/11/04 04:07:50;;;;;;;71.43;51.05;;;17.10;78.20;;;;;;4939685;28;90817;-52
2022/11/04 04:10:46;;;;;;;71.72;50.60;;;17.00;78.10;;;;;;4936211;28;95610;-50
2022/11/04 04:13:17;;;;;;;72.28;51.20;;;17.00;78.10;;;;;;4936920;28;90278;-51
2022/11/04 04:15:58;;;;;;;72.05;50.95;;;17.00;78.10;;;;;;4942003;28;91526;-48
2022/11/04 04:18:41;;;;;;;71.00;50.72;;;17.00;78.10;;;;;;4949669;28;91072;-52
2022/11/04 04:21:10;;;;;;;72.13;51.17;;;17.00;78.80;;;;;;4939571;28;91617;-51
2022/11/04 04:29:09;;;;;;;72.95;50.78;;;17.00;77.90;;;;;;4937350;28;90755;-51
2022/11/04 04:31:49;;;;;;;71.88;51.08;;;17.10;78.00;;;;;;4946711;28;91945;-51
2022/11/04 04:34:17;;;;;;;72.05;50.85;;;17.00;78.00;;;;;;4936111;28;93157;-51
2022/11/04 04:37:00;;;;;;;71.65;50.67;;;17.00;77.80;;;;;;4944081;28;90932;-52
2022/11/04 04:45:29;;;;;;;71.75;51.10;;;17.00;77.90;;;;;;4943555;28;90024;-50
2022/11/04 04:47:55;;;;;;;72.45;50.95;;;17.00;77.90;;;;;;4939888;28;89205;-51
2022/11/04 04:50:21;;;;;;;72.72;50.88;;;17.00;77.90;;;;;;4939980;28;94084;-52
2022/11/04 04:52:49;;;;;;;71.97;50.80;;;17.00;77.80;;;;;;4944982;28;90466;-52
2022/11/04 04:55:16;;;;;;;72.68;50.92;;;17.00;77.80;;;;;;4946715;28;97412;-48
2022/11/04 04:57:42;;;;;;;71.45;51.35;;;17.00;77.90;;;;;;4947281;28;89653;-52
2022/11/04 05:00:11;;;;;;;72.30;51.42;;;17.00;77.90;;;;;;4928160;28;92145;-49
2022/11/04 05:02:37;;;;;;;71.15;50.90;;;17.00;77.80;;;;;;4936224;28;91145;-50
2022/11/04 05:05:03;;;;;;;72.07;51.63;;;17.00;77.80;;;;;;4943092;28;90320;-50
2022/11/04 05:07:28;;;;;;;71.95;51.13;;;17.00;77.80;;;;;;4943354;28;92753;-50
2022/11/04 05:09:54;;;;;;;72.38;50.80;;;17.00;77.80;;;;;;4938441;28;90258;-52
2022/11/04 05:12:20;;;;;;;72.40;50.92;;;17.00;77.80;;;;;;4937881;28;89474;-49
2022/11/04 05:14:45;;;;;;;71.75;51.20;;;17.00;77.80;;;;;;4951790;28;90327;-52
2022/11/04 05:17:11;;;;;;;72.80;51.20;;;17.00;77.80;;;;;;4944307;28;89823;-48
2022/11/04 05:19:37;;;;;;;70.78;50.65;;;17.00;77.70;;;;;;4942610;28;97461;-49
2022/11/04 05:22:03;;;;;;;71.93;51.10;;;17.00;77.70;;;;;;4943898;28;92032;-51
2022/11/04 05:24:29;;;;;;;70.95;50.42;;;17.00;77.80;;;;;;4944378;28;89834;-49
2022/11/04 05:26:55;;;;;;;72.63;50.90;;;17.00;77.80;;;;;;4940675;28;89630;-51
2022/11/04 05:29:21;;;;;;;71.95;51.45;;;17.00;77.80;;;;;;4943950;28;90190;-50
2022/11/04 05:31:46;;;;;;;72.05;50.90;;;17.00;77.80;;;;;;4946792;28;90522;-49
2022/11/04 05:34:13;;;;;;;71.95;50.67;;;17.00;77.70;;;;;;4942856;28;92070;-51
2022/11/04 05:36:39;;;;;;;72.78;50.88;;;17.00;77.70;;;;;;4944878;28;89357;-49
2022/11/04 05:39:05;;;;;;;72.25;51.13;;;17.00;77.70;;;;;;4945000;28;90483;-50
2022/11/04 05:41:32;;;;;;;73.05;51.05;;;17.00;77.60;;;;;;4941750;28;91222;-49
2022/11/04 05:43:59;;;;;;;72.85;50.85;;;17.00;77.70;;;;;;4943225;28;90743;-52
2022/11/04 05:46:26;;;;;;;72.78;51.05;;;17.00;77.70;;;;;;4950686;28;89614;-50
2022/11/04 05:48:52;;;;;;;70.95;50.97;;;17.00;77.80;;;;;;4958111;28;90459;-51
2022/11/04 05:51:24;;;;;;;71.72;50.53;;;17.00;77.80;;;;;;4956920;28;89570;-51
2022/11/04 05:53:50;;;;;;;72.38;51.03;;;17.00;77.90;;;;;;4941703;28;90217;-51
2022/11/04 05:56:15;;;;;;;70.68;50.53;;;17.00;77.60;;;;;;4948489;28;91400;-52
2022/11/04 05:58:41;;;;;;;72.18;50.67;;;17.00;77.80;;;;;;4942700;28;90345;-50
2022/11/04 06:01:34;;;;;;;74.53;50.92;;;17.00;77.60;;;;;;4943886;28;91825;-49
2022/11/04 06:04:01;;;;;;;72.38;51.10;;;17.00;77.80;;;;;;4948840;28;92277;-49
2022/11/04 06:06:30;;;;;;;72.80;50.75;;;17.00;77.70;;;;;;4945479;28;92057;-50
2022/11/04 06:08:56;;;;;;;71.72;50.65;;;16.90;77.60;;;;;;4950942;28;92999;-50
2022/11/04 06:11:23;;;;;;;71.88;51.28;;;17.00;77.80;;;;;;4945568;28;90887;-51
2022/11/04 06:13:49;;;;;;;75.60;50.75;;;17.00;77.70;;;;;;4946156;28;89908;-50
2022/11/04 06:16:15;;;;;;;72.50;51.20;;;17.00;77.70;;;;;;4939664;28;90203;-51
2022/11/04 06:18:40;;;;;;;72.90;51.50;;;17.00;77.70;;;;;;4936062;28;91497;-53
2022/11/04 06:21:27;;;;;;;72.32;50.92;;;17.00;77.70;;;;;;4943614;28;91669;-49
2022/11/04 06:23:56;;;;;;;73.18;51.08;;;17.00;77.80;;;;;;4949015;28;89872;-51
2022/11/04 06:26:23;;;;;;;71.50;50.65;;;17.00;77.70;;;;;;4939621;28;90437;-52
2022/11/04 06:28:48;;;;;;;73.45;50.78;;;17.00;77.70;;;;;;4940070;28;94687;-52
2022/11/04 06:31:15;;;;;;;71.95;51.25;;;16.90;77.70;;;;;;4944914;28;90248;-51
2022/11/04 06:33:41;;;;;;;72.10;50.95;;;16.90;77.70;;;;;;4948448;28;91778;-53
2022/11/04 06:36:09;;;;;;;71.63;51.25;;;17.00;77.60;;;;;;4941564;28;89831;-55
2022/11/04 06:38:39;;;;;;;72.18;51.17;;;17.00;77.60;;;;;;4943650;28;90612;-51
2022/11/04 06:41:12;;;;;;;72.88;51.28;;;16.90;77.60;;;;;;4943069;28;90918;-52
2022/11/04 06:43:38;;;;;;;72.63;50.53;;;17.00;77.60;;;;;;4943505;28;91346;-53
2022/11/04 06:46:04;;;;;;;71.95;51.45;;;17.00;77.60;;;;;;4946619;28;91352;-54
2022/11/04 06:48:30;;;;;;;72.18;50.75;;;16.90;77.50;;;;;;4942618;28;90234;-52
2022/11/04 06:50:57;;;;;;;74.18;52.08;;;16.90;77.50;;;;;;4938426;28;89847;-53
2022/11/04 06:53:23;;;;;;;72.80;50.97;;;17.00;77.60;;;;;;4952609;28;91118;-55
2022/11/04 06:55:51;;;;;;;74.50;51.13;;;16.90;77.50;;;;;;4946822;28;89839;-52
2022/11/04 06:58:17;;;;;;;72.50;50.75;;;16.90;77.50;;;;;;4938570;28;92325;-54
2022/11/04 07:00:43;;;;;;;73.57;51.33;;;16.90;77.50;;;;;;4938467;28;95339;-50
2022/11/04 07:03:09;;;;;;;73.80;50.97;;;16.90;77.60;;;;;;4936153;28;90330;-53
2022/11/04 07:05:35;;;;;;;74.18;50.90;;;16.90;77.50;;;;;;4945121;28;91306;-54
2022/11/04 07:08:00;;;;;;;72.65;51.45;;;17.00;77.50;;;;;;4940545;28;90283;-57
2022/11/04 07:10:26;;;;;;;73.80;51.28;;;16.90;77.40;;;;;;4950885;28;90486;-53
2022/11/04 07:12:53;;;;;;;72.45;50.88;;;17.00;77.50;;;;;;4946182;28;94562;-53
2022/11/04 07:15:19;;;;;;;73.72;50.70;;;16.90;77.50;;;;;;4943271;28;90122;-51
2022/11/04 07:17:45;;;;;;;74.18;50.90;;;16.90;77.50;;;;;;4942703;28;89791;-54
2022/11/04 07:20:12;;;;;;;71.38;50.95;;;16.90;77.50;;;;;;4953272;28;90411;-56
2022/11/04 07:22:38;;;;;;;71.68;50.88;;;16.90;77.40;;;;;;4936514;28;91639;-55
2022/11/04 07:25:07;;;;;;;73.05;51.33;;;17.00;77.50;;;;;;4936335;28;89922;-58
2022/11/04 07:27:32;;;;;;;73.28;51.22;;;16.90;77.30;;;;;;4940104;28;90685;-54
2022/11/04 07:29:58;;;;;;;72.43;51.38;;;16.90;77.40;;;;;;4945380;28;92271;-55
2022/11/04 07:32:24;;;;;;;72.10;51.28;;;17.00;77.50;;;;;;4941164;28;91326;-51
2022/11/04 07:34:49;;;;;;;71.82;50.88;;;17.00;77.30;;;;;;4946011;28;90663;-55
2022/11/04 07:37:15;;;;;;;72.70;50.85;;;17.00;77.20;;;;;;4952125;28;90147;-54
2022/11/04 07:39:40;;;;;;;76.53;51.50;;;17.10;77.10;;;;;;4942043;28;90981;-54
2022/11/04 07:42:07;;;;;;;76.45;52.03;;;17.10;77.10;;;;;;4946633;28;90702;-48
2022/11/04 07:44:33;;;;;;;75.80;51.80;;;17.10;77.10;;;;;;4943959;28;89927;-54
2022/11/04 07:46:58;;;;;;;79.50;52.00;;;17.10;77.20;;;;;;4945584;28;93922;-54
2022/11/04 07:49:24;;;;;;;76.20;52.03;;;17.10;77.40;;;;;;4947228;28;91204;-55
2022/11/04 07:51:51;;;;;;;75.75;52.15;;;17.10;77.50;;;;;;4951098;28;90462;-55
2022/11/04 07:54:16;;;;;;;77.35;52.45;;;17.10;77.70;;;;;;4944464;28;90555;-54
2022/11/04 07:56:42;;;;;;;78.07;51.63;;;17.10;78.60;;;;;;4940965;28;90339;-54
2022/11/04 07:59:08;;;;;;;75.40;51.58;;;17.10;78.40;;;;;;4930696;28;92080;-54
2022/11/04 08:01:34;;;;;;;72.78;51.88;;;17.10;78.10;;;;;;4928388;28;91605;-52
2022/11/04 08:03:59;;;;;;;75.38;52.08;;;17.10;77.90;;;;;;4930825;28;92747;-53
2022/11/04 08:06:26;;;;;;;79.35;52.40;;;17.10;77.90;;;;;;4939466;28;91225;-54
2022/11/04 08:08:52;;;;;;;76.47;51.47;;;17.10;77.90;;;;;;4942476;28;90295;-54
2022/11/04 08:11:20;;;;;;;75.93;52.33;;;17.10;77.80;;;;;;4942376;28;90762;-51
2022/11/04 08:13:46;;;;;;;76.82;52.05;;;17.20;78.10;;;;;;4946970;28;95177;-49
2022/11/04 08:16:15;;;;;;;76.80;51.85;;;17.10;78.40;;;;;;4955189;28;90543;-50
2022/11/04 08:18:41;;;;;;;85.22;51.92;;;17.20;78.60;;;;;;4942397;28;90676;-53
2022/11/04 08:21:08;;;;;;;77.70;52.45;;;17.20;78.50;;;;;;4935983;28;90162;-49
2022/11/04 08:23:34;;;;;;;77.35;51.88;;;17.20;78.60;;;;;;4949647;28;90315;-55
2022/11/04 08:26:00;;;;;;;73.18;51.75;;;17.20;78.50;;;;;;4942636;28;90287;-49
2022/11/04 08:28:28;;;;;;;80.55;52.03;;;17.20;78.40;;;;;;4944363;28;90928;-50
2022/11/04 08:31:00;;;;;;;79.05;51.88;;;17.20;78.50;;;;;;4936749;28;90059;-51
2022/11/04 08:33:27;;;;;;;73.30;51.70;;;17.20;78.50;;;;;;4940469;28;91508;-49
2022/11/04 08:35:57;;;;;;;76.75;51.70;;;17.20;78.40;;;;;;4951720;28;91558;-50
2022/11/04 08:38:23;;;;;;;75.95;52.10;;;17.20;78.20;;;;;;4942477;28;90915;-51
2022/11/04 08:40:49;;;;;;;75.25;51.75;;;17.20;78.30;;;;;;4941926;28;93204;-54
2022/11/04 08:43:14;;;;;;;74.75;51.75;;;17.20;78.30;;;;;;4952789;28;89511;-48
2022/11/04 08:45:45;;;;;;;81.32;52.75;;;17.20;77.90;;;;;;4940212;28;93904;-54
2022/11/04 08:48:11;;;;;;;82.47;52.40;;;17.20;78.40;;;;;;4940094;28;93361;-49
2022/11/04 08:50:37;;;;;;;101.55;56.50;;;17.30;78.80;;;;;;4940842;28;90949;-51
2022/11/04 08:53:04;;;;;;;100.43;56.38;;;17.30;78.90;;;;;;4927818;28;89210;-54
2022/11/04 08:55:30;;;;;;;104.22;56.67;;;17.30;78.70;;;;;;4938205;28;90088;-54
2022/11/04 08:57:56;;;;;;;96.70;55.55;;;17.30;78.70;;;;;;4937894;28;90788;-52
2022/11/04 09:00:23;;;;;;;100.68;55.78;;;17.30;78.70;;;;;;4937364;28;94003;-58
2022/11/04 09:02:48;;;;;;;98.97;56.72;;;17.40;78.90;;;;;;4941567;28;91524;-54
2022/11/04 09:05:14;;;;;;;103.05;55.80;;;17.30;79.00;;;;;;4935801;28;91616;-52
2022/11/04 09:07:41;;;;;;;94.57;56.00;;;17.30;78.70;;;;;;4937207;28;94295;-55
2022/11/04 09:10:08;;;;;;;96.57;56.97;;;17.30;78.20;;;;;;4941338;28;90460;-55
2022/11/04 09:12:34;;;;;;;95.45;57.45;;;17.30;78.10;;;;;;4933040;28;90356;-53
2022/11/04 09:14:59;;;;;;;100.53;57.97;;;17.30;78.20;;;;;;4926504;28;91804;-53
2022/11/04 09:17:25;;;;;;;92.32;56.60;;;17.20;78.10;;;;;;4941004;28;90473;-53
2022/11/04 09:19:51;;;;;;;89.65;55.92;;;17.30;78.10;;;;;;4940480;28;90551;-53
2022/11/04 09:22:16;;;;;;;97.45;56.22;;;17.20;77.80;;;;;;4941300;28;92537;-52
2022/11/04 09:24:43;;;;;;;99.60;57.33;;;17.30;77.80;;;;;;4940780;28;91980;-52
2022/11/04 09:27:09;;;;;;;93.00;55.00;;;17.20;77.70;;;;;;4956029;28;90841;-51
2022/11/04 09:29:35;;;;;;;98.57;55.13;;;17.20;77.70;;;;;;4952190;28;94118;-52
2022/11/04 09:32:02;;;;;;;89.38;55.40;;;17.20;77.70;;;;;;4950238;28;90001;-54
2022/11/04 09:34:28;;;;;;;94.90;55.75;;;17.20;77.60;;;;;;4949147;28;91017;-51
2022/11/04 09:36:57;;;;;;;92.97;55.03;;;17.30;77.60;;;;;;4950896;28;90989;-53
2022/11/04 09:39:23;;;;;;;89.88;55.30;;;17.20;77.40;;;;;;4943763;28;92468;-48
2022/11/04 09:42:00;;;;;;;91.20;54.83;;;17.20;77.50;;;;;;4953738;28;92085;-53
2022/11/04 09:45:03;;;;;;;88.45;55.10;;;17.20;77.40;;;;;;4948473;28;90138;-56
2022/11/04 09:47:30;;;;;;;90.15;55.38;;;17.20;77.30;;;;;;4937809;28;90485;-50
2022/11/04 09:49:58;;;;;;;88.78;55.25;;;17.20;77.40;;;;;;4950858;28;90667;-52
2022/11/04 09:52:25;;;;;;;89.03;55.05;;;17.20;77.30;;;;;;4947360;28;93230;-53
2022/11/04 09:55:23;;;;;;;90.57;55.22;;;17.20;77.40;;;;;;4945039;28;92256;-53
2022/11/04 09:57:59;;;;;;;92.40;54.83;;;17.30;77.30;;;;;;4946268;28;91288;-50
2022/11/04 10:00:29;;;;;;;85.97;54.47;;;17.30;77.30;;;;;;4945908;28;94230;-53
2022/11/04 10:03:20;;;;;;;89.60;54.88;;;17.30;77.20;;;;;;4948238;28;96817;-53
2022/11/04 10:06:24;;;;;;;90.32;54.60;;;17.30;77.20;;;;;;4948146;28;90372;-52
2022/11/04 10:08:58;;;;;;;88.07;55.00;;;17.40;77.10;;;;;;4959368;28;89207;-50
2022/11/04 10:11:43;;;;;;;84.43;54.42;;;17.40;77.20;;;;;;4942520;28;89950;-51
2022/11/04 10:14:27;;;;;;;84.80;54.35;;;17.40;77.40;;;;;;4940709;28;90431;-52
2022/11/04 10:17:20;;;;;;;85.38;55.15;;;17.30;77.30;;;;;;4947430;28;91043;-54
2022/11/04 10:20:08;;;;;;;87.35;55.22;;;17.40;77.40;;;;;;4951384;28;93453;-54
2022/11/04 10:22:46;;;;;;;86.35;54.80;;;17.40;77.40;;;;;;4954477;28;91797;-51
2022/11/04 10:25:24;;;;;;;88.68;54.88;;;17.40;77.50;;;;;;4949118;28;90150;-52
2022/11/04 10:27:51;;;;;;;83.50;54.55;;;17.40;77.50;;;;;;4947899;28;90261;-53
2022/11/04 10:30:22;;;;;;;82.80;53.75;;;17.40;77.50;;;;;;4957094;28;91048;-52
2022/11/04 10:32:48;;;;;;;;;;;17.50;77.50;;;;;;4949103;28;89884;-54
2022/11/04 10:35:36;;;;;;;86.00;54.20;;;17.50;77.40;;;;;;4944204;28;88855;-52
2022/11/04 10:38:39;;;;;;;91.20;54.75;;;17.50;77.40;;;;;;4946051;28;90730;-52
2022/11/04 10:41:23;;;;;;;88.63;54.15;;;17.50;77.70;;;;;;4941080;28;91363;-53
2022/11/04 10:44:02;;;;;;;81.63;54.28;;;17.50;77.40;;;;;;4940675;28;95162;-53
2022/11/04 10:46:49;;;;;;;84.93;54.67;;;17.50;77.30;;;;;;4945642;28;90253;-52
2022/11/04 10:49:33;;;;;;;83.38;53.78;;;17.50;77.50;;;;;;4938519;28;94353;-50
2022/11/04 10:51:59;;;;;;;83.18;53.75;;;17.40;77.40;;;;;;4954658;28;90631;-50
2022/11/04 10:54:26;;;;;;;86.13;53.95;;;17.50;77.10;;;;;;4944245;28;90151;-52
2022/11/04 10:56:54;;;;;;;81.65;54.38;;;17.50;77.00;;;;;;4945896;28;93473;-53
2022/11/04 10:59:30;;;;;;;85.75;54.47;;;17.50;76.90;;;;;;4948621;28;90590;-53
2022/11/04 11:02:01;;;;;;;85.07;53.65;;;17.50;76.80;;;;;;4954979;28;92631;-52
2022/11/04 11:04:28;;;;;;;88.38;54.30;;;17.60;77.30;;;;;;4958519;28;89773;-53
2022/11/04 11:06:56;;;;;;;85.22;54.33;;;17.60;77.10;;;;;;4940366;28;89975;-52
2022/11/04 11:09:40;;;;;;;82.88;53.70;;;17.50;77.20;;;;;;4947377;28;92267;-51
2022/11/04 11:12:11;;;;;;;84.90;53.95;;;17.50;77.20;;;;;;4945796;28;94965;-52
2022/11/04 11:14:37;;;;;;;;;;;17.50;77.10;;;;;;4951532;28;90100;-50
2022/11/04 11:17:22;;;;;;;81.45;53.58;;;17.50;77.20;;;;;;4958884;28;94139;-52
2022/11/04 11:19:49;;;;;;;83.40;53.55;;;17.50;76.90;;;;;;4951201;28;93291;-53
2022/11/04 11:22:36;;;;;;;79.13;53.55;;;17.50;77.30;;;;;;4944060;28;91794;-52
2022/11/04 11:25:24;;;;;;;81.40;53.72;;;17.50;77.10;;;;;;4943675;28;94296;-52
2022/11/04 11:28:05;;;;;;;82.38;54.08;;;17.50;77.20;;;;;;4955449;28;89991;-53
2022/11/04 11:30:32;;;;;;;78.83;53.83;;;17.50;77.10;;;;;;4949556;28;93269;-52
2022/11/04 11:33:28;;;;;;;81.90;54.08;;;17.50;76.50;;;;;;4945839;28;90726;-49
2022/11/04 11:36:18;;;;;;;83.10;54.40;;;17.50;76.60;;;;;;4935604;28;90890;-52
2022/11/04 11:39:04;;;;;;;87.32;53.85;;;17.60;76.40;;;;;;4944368;28;92859;-53
2022/11/04 11:41:46;;;;;;;81.55;53.65;;;17.50;76.10;;;;;;4937128;28;90525;-53
2022/11/04 11:44:22;;;;;;;80.95;53.75;;;17.60;76.30;;;;;;4954485;28;90622;-48
2022/11/04 11:46:56;;;;;;;82.28;53.83;;;17.60;76.20;;;;;;4951094;28;90139;-53
2022/11/04 11:49:42;;;;;;;85.28;54.17;;;17.60;75.90;;;;;;4942673;28;93990;-51
2022/11/04 11:52:37;;;;;;;77.22;53.08;;;17.60;75.80;;;;;;4943846;28;91397;-51
2022/11/04 11:55:15;;;;;;;80.90;53.17;;;17.60;75.90;;;;;;4946088;28;89860;-52
2022/11/04 11:58:18;;;;;;;81.47;53.80;;;17.90;77.30;;;;;;4944771;28;90131;-52
2022/11/04 12:01:06;;;;;;;82.30;53.97;;;18.00;75.20;;;;;;4955941;28;89874;-53
2022/11/04 12:03:42;;;;;;;83.22;53.53;;;17.80;75.20;;;;;;4951601;28;91709;-52
2022/11/04 12:06:19;;;;;;;79.50;53.55;;;17.80;75.70;;;;;;4942456;28;95331;-52
2022/11/04 12:08:45;;;;;;;81.55;53.50;;;17.70;75.90;;;;;;4952004;28;89748;-51
2022/11/04 12:11:35;;;;;;;79.25;53.40;;;17.70;76.00;;;;;;4939445;28;90564;-47
2022/11/04 12:14:10;;;;;;;76.95;53.30;;;17.70;77.20;;;;;;4937632;28;89639;-48
2022/11/04 12:16:45;;;;;;;81.32;53.95;;;17.70;77.40;;;;;;4952907;28;90220;-51
2022/11/04 12:19:32;;;;;;;77.38;53.53;;;17.60;77.60;;;;;;4950567;28;89783;-49
2022/11/04 12:22:00;;;;;;;79.78;53.15;;;17.60;78.40;;;;;;4948911;28;92378;-50
2022/11/04 12:24:35;;;;;;;81.43;53.58;;;17.60;79.10;;;;;;4960515;28;90117;-53
2022/11/04 12:27:16;;;;;;;78.75;53.13;;;17.60;78.80;;;;;;4947229;28;89696;-49
2022/11/04 12:29:54;;;;;;;79.53;53.80;;;17.60;78.60;;;;;;4945419;28;91309;-47
2022/11/04 12:32:26;;;;;;;81.20;53.65;;;17.70;78.90;;;;;;4953143;28;89770;-50
2022/11/04 12:35:38;;;;;;;80.93;53.42;;;17.70;79.00;;;;;;4952946;28;91495;-52
2022/11/04 12:38:22;;;;;;;80.93;54.05;;;17.70;78.60;;;;;;4918290;28;90100;-50
2022/11/04 12:41:14;;;;;;;80.97;52.90;;;17.70;77.80;;;;;;4942322;28;92073;-49
2022/11/04 12:44:04;;;;;;;87.25;53.72;;;17.70;77.50;;;;;;4943977;28;90551;-49
2022/11/04 12:46:48;;;;;;;79.63;53.20;;;17.70;77.50;;;;;;4937272;28;90105;-49
2022/11/04 12:49:26;;;;;;;80.10;53.40;;;17.80;77.40;;;;;;4940175;28;90999;-48
2022/11/04 12:51:52;;;;;;;79.22;53.30;;;17.80;77.10;;;;;;4950905;28;89899;-50
2022/11/04 12:54:41;;;;;;;86.00;53.65;;;17.80;77.30;;;;;;4952727;28;90595;-48
2022/11/04 12:57:38;;;;;;;81.85;53.25;;;17.90;77.30;;;;;;4949392;28;92495;-47
2022/11/04 13:00:05;;;;;;;83.68;53.13;;;17.90;77.50;;;;;;4955951;28;93496;-52
2022/11/04 13:02:49;;;;;;;81.15;52.75;;;17.90;77.50;;;;;;4955297;28;90276;-50
2022/11/04 13:05:20;;;;;;;84.10;53.70;;;17.90;77.30;;;;;;4942943;28;94557;-50
2022/11/04 13:08:01;;;;;;;79.88;53.13;;;17.90;77.30;;;;;;4946375;28;89857;-47
2022/11/04 13:11:21;;;;;;;79.18;53.67;;;17.80;77.70;;;;;;4946861;28;91068;-50
2022/11/04 13:13:57;;;;;;;79.53;52.45;;;17.80;77.40;;;;;;4945958;28;91038;-51
2022/11/04 13:16:23;;;;;;;79.72;53.08;;;17.80;77.20;;;;;;4943369;28;89047;-47
2022/11/04 13:18:50;;;;;;;77.35;53.28;;;17.80;76.90;;;;;;4952386;28;94443;-47
2022/11/04 13:21:24;;;;;;;78.97;53.42;;;17.80;76.90;;;;;;4962571;28;89880;-49
2022/11/04 13:24:19;;;;;;;79.65;53.00;;;17.80;77.40;;;;;;4948010;28;90752;-49
2022/11/04 13:26:45;;;;;;;79.25;53.28;;;17.80;79.00;;;;;;4946721;28;90040;-48